createdAt,value
2022-11-27T00:01:18.136Z,32.78
2022-11-27T00:03:45.376Z,30.55
2022-11-27T00:06:18.108Z,26.58
2022-11-27T00:08:45.981Z,25.80
2022-11-27T00:11:18.952Z,20.58
2022-11-27T00:13:46.549Z,20.42
2022-11-27T00:16:14.823Z,18.25
2022-11-27T00:18:42.064Z,15.47
2022-11-27T00:21:12.696Z,19.45
2022-11-27T00:23:40.103Z,15.82
2022-11-27T00:26:07.981Z,15.37
2022-11-27T00:28:35.493Z,12.70
2022-11-27T00:31:05.171Z,13.63
2022-11-27T00:33:32.598Z,12.87
2022-11-27T00:36:04.678Z,24.88
2022-11-27T00:38:35.930Z,24.05
2022-11-27T00:41:10.926Z,17.10
2022-11-27T00:43:44.528Z,15.35
2022-11-27T00:46:14.252Z,16.60
2022-11-27T00:48:42.150Z,19.65
2022-11-27T00:51:11.993Z,14.95
2022-11-27T00:53:39.121Z,14.70
2022-11-27T00:56:06.674Z,19.90
2022-11-27T00:58:34.157Z,11.90
2022-11-27T01:01:05.965Z,13.73
2022-11-27T01:03:33.778Z,14.00
2022-11-27T01:06:05.761Z,8.75
2022-11-27T01:08:34.295Z,25.10
2022-11-27T01:11:01.928Z,16.33
2022-11-27T01:13:31.589Z,10.88
2022-11-27T01:16:22.962Z,15.25
2022-11-27T01:18:51.372Z,27.33
2022-11-27T01:21:21.326Z,19.67
2022-11-27T01:23:49.510Z,13.75
2022-11-27T01:26:18.377Z,12.63
2022-11-27T01:28:46.012Z,12.48
2022-11-27T01:31:16.888Z,14.07
2022-11-27T01:33:45.399Z,19.17
2022-11-27T01:36:14.891Z,10.32
2022-11-27T01:38:42.393Z,10.00
2022-11-27T01:41:18.458Z,10.65
2022-11-27T01:43:53.459Z,8.50
2022-11-27T01:46:26.355Z,5.57
2022-11-27T01:48:56.019Z,5.47
2022-11-27T01:51:23.522Z,13.37
2022-11-27T01:53:52.775Z,10.55
2022-11-27T01:56:21.754Z,13.60
2022-11-27T01:58:49.679Z,22.65
2022-11-27T02:01:17.031Z,11.50
2022-11-27T02:03:44.127Z,11.05
2022-11-27T02:06:14.471Z,13.07
2022-11-27T02:08:42.163Z,6.33
2022-11-27T02:11:30.951Z,7.97
2022-11-27T02:14:09.540Z,5.32
2022-11-27T02:16:46.059Z,4.82
2022-11-27T02:19:29.380Z,5.53
2022-11-27T02:21:56.367Z,4.57
2022-11-27T02:24:32.600Z,4.05
2022-11-27T02:27:56.440Z,4.45
2022-11-27T02:30:24.067Z,4.82
2022-11-27T02:33:00.544Z,4.03
2022-11-27T02:35:39.467Z,3.97
2022-11-27T02:38:12.835Z,3.63
2022-11-27T02:40:50.916Z,4.15
2022-11-27T02:43:23.963Z,2.47
2022-11-27T02:45:52.556Z,5.63
2022-11-27T02:48:24.672Z,3.65
2022-11-27T02:50:53.640Z,3.22
2022-11-27T02:53:29.164Z,2.70
2022-11-27T02:55:58.072Z,3.75
2022-11-27T02:58:28.061Z,6.03
2022-11-27T03:00:56.665Z,12.77
2022-11-27T03:03:29.516Z,9.70
2022-11-27T03:06:05.553Z,10.50
2022-11-27T03:08:43.941Z,14.68
2022-11-27T03:11:14.512Z,11.60
2022-11-27T03:13:45.182Z,11.13
2022-11-27T03:16:17.166Z,14.52
2022-11-27T03:18:56.929Z,11.02
2022-11-27T03:21:39.188Z,12.13
2022-11-27T03:24:08.537Z,17.37
2022-11-27T03:26:36.201Z,23.92
2022-11-27T03:29:06.948Z,18.05
2022-11-27T03:31:34.250Z,12.93
2022-11-27T03:34:02.027Z,10.32
2022-11-27T03:36:29.074Z,10.18
2022-11-27T03:38:56.339Z,15.82
2022-11-27T03:41:49.571Z,8.63
2022-11-27T03:44:22.734Z,9.10
2022-11-27T03:47:19.671Z,7.80
2022-11-27T03:50:08.505Z,8.43
2022-11-27T03:52:41.263Z,13.35
2022-11-27T03:55:30.018Z,8.48
2022-11-27T03:58:04.823Z,8.60
2022-11-27T04:00:35.076Z,7.10
2022-11-27T04:03:03.732Z,6.35
2022-11-27T04:05:30.986Z,7.72
2022-11-27T04:07:58.069Z,19.08
2022-11-27T04:10:25.168Z,20.85
2022-11-27T04:12:52.202Z,11.27
2022-11-27T04:15:19.318Z,14.90
2022-11-27T04:17:46.366Z,9.43
2022-11-27T04:20:14.580Z,12.00
2022-11-27T04:22:41.710Z,8.63
2022-11-27T04:25:09.251Z,9.43
2022-11-27T04:27:36.306Z,3.92
2022-11-27T04:30:04.107Z,6.78
2022-11-27T04:32:31.162Z,4.97
2022-11-27T04:34:58.188Z,8.32
2022-11-27T04:37:25.478Z,11.25
2022-11-27T04:39:52.615Z,18.83
2022-11-27T04:42:19.658Z,11.65
2022-11-27T04:44:46.708Z,12.70
2022-11-27T04:47:13.800Z,14.88
2022-11-27T04:49:40.920Z,12.77
2022-11-27T04:52:08.188Z,14.75
2022-11-27T04:54:35.227Z,17.38
2022-11-27T04:57:02.492Z,22.80
2022-11-27T04:59:29.619Z,19.30
2022-11-27T05:01:56.688Z,11.93
2022-11-27T05:04:24.071Z,12.60
2022-11-27T05:06:51.133Z,20.75
2022-11-27T05:09:18.400Z,12.27
2022-11-27T05:11:45.660Z,7.45
2022-11-27T05:14:16.692Z,7.80
2022-11-27T05:16:52.082Z,5.95
2022-11-27T05:19:21.308Z,6.47
2022-11-27T05:21:49.228Z,4.93
2022-11-27T05:24:17.834Z,4.25
2022-11-27T05:26:45.300Z,4.22
2022-11-27T05:29:15.448Z,16.40
2022-11-27T05:31:43.129Z,6.72
2022-11-27T05:34:12.645Z,8.37
2022-11-27T05:36:40.300Z,7.00
2022-11-27T05:39:08.304Z,4.43
2022-11-27T05:41:37.176Z,6.03
2022-11-27T05:44:05.211Z,4.38
2022-11-27T05:46:32.618Z,3.97
2022-11-27T05:48:59.974Z,4.30
2022-11-27T05:51:27.052Z,5.93
2022-11-27T05:53:54.314Z,3.92
2022-11-27T05:56:21.360Z,3.40
2022-11-27T05:58:48.851Z,3.80
2022-11-27T06:01:17.739Z,4.47
2022-11-27T06:03:45.202Z,5.07
2022-11-27T06:06:16.266Z,5.00
2022-11-27T06:08:44.282Z,9.38
2022-11-27T06:11:20.612Z,22.48
2022-11-27T06:13:49.181Z,24.92
2022-11-27T06:16:22.605Z,24.80
2022-11-27T06:18:54.165Z,20.30
2022-11-27T06:21:23.006Z,20.73
2022-11-27T06:23:56.652Z,14.35
2022-11-27T06:26:28.658Z,12.10
2022-11-27T06:28:57.185Z,13.80
2022-11-27T06:31:26.940Z,15.68
2022-11-27T06:33:55.482Z,16.13
2022-11-27T06:36:24.561Z,19.13
2022-11-27T06:38:51.630Z,18.55
2022-11-27T06:41:27.190Z,30.38
2022-11-27T06:43:55.549Z,19.00
2022-11-27T06:46:23.281Z,13.30
2022-11-27T06:48:52.368Z,15.77
2022-11-27T06:51:21.895Z,12.65
2022-11-27T06:53:50.054Z,8.88
2022-11-27T06:56:19.859Z,8.10
2022-11-27T06:58:50.370Z,20.20
2022-11-27T07:01:18.113Z,10.70
2022-11-27T07:03:45.730Z,12.52
2022-11-27T07:06:15.565Z,12.45
2022-11-27T07:08:43.174Z,16.88
2022-11-27T07:11:18.276Z,12.63
2022-11-27T07:13:46.935Z,13.30
2022-11-27T07:16:14.665Z,12.68
2022-11-27T07:18:44.591Z,18.83
2022-11-27T07:21:12.223Z,16.80
2022-11-27T07:23:39.610Z,27.85
2022-11-27T07:26:08.215Z,29.92
2022-11-27T07:28:35.759Z,24.27
2022-11-27T07:31:03.950Z,25.30
2022-11-27T07:33:31.527Z,19.33
2022-11-27T07:36:00.630Z,20.23
2022-11-27T07:38:28.010Z,13.93
2022-11-27T07:40:55.119Z,14.45
2022-11-27T07:43:22.166Z,17.63
2022-11-27T07:45:49.420Z,12.23
2022-11-27T07:48:16.552Z,11.05
2022-11-27T07:50:43.627Z,11.48
2022-11-27T07:53:10.695Z,11.73
2022-11-27T07:55:39.643Z,9.68
2022-11-27T07:58:08.132Z,8.80
2022-11-27T08:00:36.139Z,13.03
2022-11-27T08:03:03.535Z,8.60
2022-11-27T08:05:33.087Z,18.20
2022-11-27T08:08:01.400Z,11.77
2022-11-27T08:10:28.532Z,17.75
2022-11-27T08:12:55.568Z,13.77
2022-11-27T08:15:22.608Z,14.73
2022-11-27T08:17:49.644Z,12.85
2022-11-27T08:20:16.881Z,15.63
2022-11-27T08:22:43.896Z,22.50
2022-11-27T08:25:11.040Z,16.42
2022-11-27T08:27:38.124Z,16.55
2022-11-27T08:30:06.526Z,29.35
2022-11-27T08:32:33.760Z,44.70
2022-11-27T08:35:02.424Z,29.75
2022-11-27T08:37:29.464Z,37.75
2022-11-27T08:39:56.520Z,39.55
2022-11-27T08:42:23.634Z,50.15
2022-11-27T08:44:50.684Z,36.13
2022-11-27T08:47:17.765Z,26.15
2022-11-27T08:49:46.336Z,32.08
2022-11-27T08:52:13.662Z,21.60
2022-11-27T08:54:40.901Z,26.27
2022-11-27T08:57:08.142Z,34.80
2022-11-27T08:59:35.191Z,25.70
2022-11-27T09:02:02.209Z,37.83
2022-11-27T09:04:29.451Z,22.67
2022-11-27T09:06:58.719Z,23.50
2022-11-27T09:09:25.933Z,20.70
2022-11-27T09:11:54.584Z,18.00
2022-11-27T09:14:21.950Z,11.93
2022-11-27T09:16:49.054Z,13.43
2022-11-27T09:19:17.092Z,17.33
2022-11-27T09:21:44.186Z,16.60
2022-11-27T09:24:11.229Z,15.38
2022-11-27T09:26:39.253Z,10.75
2022-11-27T09:29:06.315Z,8.60
2022-11-27T09:31:33.428Z,12.18
2022-11-27T09:34:00.519Z,9.90
2022-11-27T09:36:27.878Z,11.30
2022-11-27T09:38:55.013Z,8.55
2022-11-27T09:41:49.007Z,9.35
2022-11-27T09:44:24.254Z,4.97
2022-11-27T09:46:52.439Z,7.83
2022-11-27T09:49:30.803Z,16.73
2022-11-27T09:52:07.728Z,17.88
2022-11-27T09:54:46.750Z,12.77
2022-11-27T09:57:26.586Z,14.40
2022-11-27T09:59:54.310Z,11.37
2022-11-27T10:02:41.699Z,10.07
2022-11-27T10:05:18.608Z,16.38
2022-11-27T10:08:07.664Z,12.07
2022-11-27T10:11:03.192Z,11.37
2022-11-27T10:13:39.277Z,16.67
2022-11-27T10:16:44.760Z,18.33
2022-11-27T10:19:59.666Z,22.43
2022-11-27T10:22:57.623Z,30.05
2022-11-27T10:25:40.187Z,16.48
2022-11-27T10:28:32.303Z,18.13
2022-11-27T10:31:14.625Z,21.45
2022-11-27T10:33:57.487Z,17.23
2022-11-27T10:36:33.691Z,17.60
2022-11-27T10:39:02.783Z,13.60
2022-11-27T10:41:53.156Z,10.00
2022-11-27T10:44:32.360Z,9.35
2022-11-27T10:47:03.910Z,10.75
2022-11-27T10:49:31.620Z,9.15
2022-11-27T10:52:00.977Z,9.97
2022-11-27T10:54:34.087Z,5.93
2022-11-27T10:57:11.803Z,6.22
2022-11-27T11:00:24.859Z,7.30
2022-11-27T11:03:03.844Z,6.57
2022-11-27T11:05:45.537Z,7.72
2022-11-27T11:08:20.540Z,11.00
2022-11-27T11:11:02.446Z,9.23
2022-11-27T11:13:45.881Z,10.93
2022-11-27T11:16:17.533Z,15.30
2022-11-27T11:18:52.766Z,20.67
2022-11-27T11:21:27.886Z,20.23
2022-11-27T11:24:11.932Z,17.45
2022-11-27T11:26:48.020Z,20.80
2022-11-27T11:29:30.881Z,29.70
2022-11-27T11:32:03.132Z,25.45
2022-11-27T11:34:31.245Z,16.55
2022-11-27T11:37:22.457Z,15.52
2022-11-27T11:40:03.664Z,11.15
2022-11-27T11:42:32.585Z,9.20
2022-11-27T11:45:17.505Z,11.60
2022-11-27T11:47:53.024Z,12.10
2022-11-27T11:50:37.298Z,12.52
2022-11-27T11:53:24.513Z,13.48
2022-11-27T11:56:18.797Z,12.05
2022-11-27T11:58:53.866Z,13.27
2022-11-27T12:01:27.618Z,12.50
2022-11-27T12:04:13.131Z,15.48
2022-11-27T12:07:00.605Z,12.15
2022-11-27T12:09:32.577Z,7.15
2022-11-27T12:12:40.705Z,11.43
2022-11-27T12:15:31.517Z,16.10
2022-11-27T12:18:16.403Z,20.13
2022-11-27T12:21:11.619Z,16.35
2022-11-27T12:24:02.958Z,15.13
2022-11-27T12:26:48.609Z,18.05
2022-11-27T12:29:42.872Z,14.02
2022-11-27T12:32:23.709Z,15.33
2022-11-27T12:35:02.468Z,12.73
2022-11-27T12:37:56.355Z,15.60
2022-11-27T12:40:26.474Z,12.73
2022-11-27T12:43:26.466Z,12.75
2022-11-27T12:46:22.403Z,15.52
2022-11-27T12:49:13.533Z,16.17
2022-11-27T12:51:55.454Z,21.30
2022-11-27T12:54:29.676Z,17.70
2022-11-27T12:56:59.987Z,16.10
2022-11-27T12:59:45.775Z,19.27
2022-11-27T13:02:29.029Z,19.83
2022-11-27T13:05:17.659Z,121.53
2022-11-27T13:08:17.197Z,72.73
2022-11-27T13:10:55.192Z,46.95
2022-11-27T13:13:24.676Z,27.88
2022-11-27T13:15:57.808Z,47.45
2022-11-27T13:18:41.419Z,34.57
2022-11-27T13:21:12.808Z,62.10
2022-11-27T13:23:39.944Z,49.05
2022-11-27T13:26:15.095Z,38.80
2022-11-27T13:28:46.183Z,45.33
2022-11-27T13:31:20.301Z,44.40
2022-11-27T13:33:48.860Z,62.40
2022-11-27T13:36:33.335Z,53.15
2022-11-27T13:39:03.710Z,53.20
2022-11-27T13:41:40.782Z,46.90
2022-11-27T13:44:28.499Z,20.73
2022-11-27T13:47:06.272Z,50.83
2022-11-27T13:49:37.854Z,68.07
2022-11-27T13:52:17.164Z,80.97
2022-11-27T13:54:58.738Z,62.53
2022-11-27T13:57:27.782Z,57.43
2022-11-27T14:00:02.177Z,49.83
2022-11-27T14:02:41.326Z,42.13
2022-11-27T14:05:09.004Z,26.95
2022-11-27T14:07:45.478Z,83.88
2022-11-27T14:10:17.324Z,24.52
2022-11-27T14:12:56.448Z,20.75
2022-11-27T14:15:27.882Z,18.50
2022-11-27T14:18:08.460Z,15.80
2022-11-27T14:20:46.121Z,12.30
2022-11-27T14:23:13.906Z,36.70
2022-11-27T14:25:41.548Z,62.88
2022-11-27T14:28:21.723Z,101.25
2022-11-27T14:31:00.638Z,45.45
2022-11-27T14:33:59.711Z,41.05
2022-11-27T14:36:25.477Z,88.88
2022-11-27T14:38:53.188Z,67.63
2022-11-27T14:41:23.274Z,46.30
2022-11-27T14:44:04.857Z,64.53
2022-11-27T14:46:35.194Z,96.78
2022-11-27T14:49:02.689Z,151.60
2022-11-27T14:51:32.719Z,113.43
2022-11-27T14:54:25.428Z,85.35
2022-11-27T14:56:53.198Z,54.17
2022-11-27T14:59:22.773Z,47.88
2022-11-27T15:02:01.215Z,43.97
2022-11-27T15:04:48.573Z,37.17
2022-11-27T15:07:16.913Z,48.33
2022-11-27T15:09:47.571Z,51.15
2022-11-27T15:12:29.437Z,53.28
2022-11-27T15:15:01.483Z,36.90
2022-11-27T15:17:31.657Z,36.95
2022-11-27T15:20:02.357Z,37.90
2022-11-27T15:22:29.790Z,39.85
2022-11-27T15:25:05.122Z,30.83
2022-11-27T15:27:43.779Z,28.25
2022-11-27T15:30:18.695Z,24.57
2022-11-27T15:32:51.245Z,18.67
2022-11-27T15:35:22.854Z,19.20
2022-11-27T15:37:51.401Z,28.53
2022-11-27T15:40:27.766Z,24.40
2022-11-27T15:42:54.812Z,21.33
2022-11-27T15:45:22.274Z,22.67
2022-11-27T15:47:56.741Z,27.75
2022-11-27T15:50:23.771Z,21.98
2022-11-27T15:52:50.857Z,25.25
2022-11-27T15:55:18.576Z,22.02
2022-11-27T15:57:46.139Z,26.98
2022-11-27T16:00:13.759Z,20.15
2022-11-27T16:02:40.992Z,23.50
2022-11-27T16:05:08.736Z,25.50
2022-11-27T16:07:35.881Z,29.15
2022-11-27T16:10:03.426Z,20.42
2022-11-27T16:12:30.492Z,18.47
2022-11-27T16:14:57.675Z,17.80
2022-11-27T16:17:24.715Z,16.70
2022-11-27T16:19:51.771Z,17.30
2022-11-27T16:22:19.123Z,17.10
2022-11-27T16:24:46.166Z,12.75
2022-11-27T16:27:13.243Z,11.57
2022-11-27T16:29:40.432Z,13.55
2022-11-27T16:32:07.595Z,13.30
2022-11-27T16:34:34.980Z,10.13
2022-11-27T16:37:02.163Z,12.98
2022-11-27T16:39:29.235Z,12.10
2022-11-27T16:41:56.270Z,7.00
2022-11-27T16:44:23.336Z,10.93
2022-11-27T16:46:51.162Z,7.65
2022-11-27T16:49:18.237Z,11.18
2022-11-27T16:51:45.396Z,16.98
2022-11-27T16:54:13.628Z,14.63
2022-11-27T16:56:40.816Z,14.68
2022-11-27T16:59:09.720Z,14.80
2022-11-27T17:01:37.268Z,16.08
2022-11-27T17:04:08.687Z,19.95
2022-11-27T17:06:37.857Z,14.35
2022-11-27T17:09:07.496Z,20.05
2022-11-27T17:11:36.692Z,21.58
2022-11-27T17:14:07.164Z,21.13
2022-11-27T17:16:35.528Z,16.83
2022-11-27T17:19:02.693Z,15.88
2022-11-27T17:21:32.225Z,17.17
2022-11-27T17:24:01.485Z,13.77
2022-11-27T17:26:30.785Z,18.33
2022-11-27T17:28:59.343Z,19.98
2022-11-27T17:31:32.358Z,20.45
2022-11-27T17:34:00.059Z,12.88
2022-11-27T17:36:30.415Z,16.48
2022-11-27T17:39:05.651Z,15.57
2022-11-27T17:41:33.773Z,8.07
2022-11-27T17:44:04.653Z,11.90
2022-11-27T17:46:32.422Z,10.98
2022-11-27T17:49:01.845Z,17.23
2022-11-27T17:51:32.586Z,9.27
2022-11-27T17:54:01.159Z,9.23
2022-11-27T17:56:29.361Z,11.02
2022-11-27T17:58:56.524Z,6.80
2022-11-27T18:01:26.342Z,6.80
2022-11-27T18:03:59.806Z,6.38
2022-11-27T18:06:27.054Z,6.88
2022-11-27T18:08:56.407Z,5.23
2022-11-27T18:11:28.215Z,4.25
2022-11-27T18:13:55.383Z,8.47
2022-11-27T18:16:28.815Z,14.55
2022-11-27T18:18:57.506Z,18.05
2022-11-27T18:21:27.113Z,13.85
2022-11-27T18:24:21.795Z,8.25
2022-11-27T18:29:28.779Z,12.85
2022-11-27T18:31:55.893Z,15.95
2022-11-27T18:34:22.953Z,10.93
2022-11-27T18:36:50.014Z,10.02
2022-11-27T18:39:17.175Z,11.88
2022-11-27T18:41:44.205Z,13.90
2022-11-27T18:44:11.255Z,50.95
2022-11-27T18:46:38.551Z,32.30
2022-11-27T18:49:05.994Z,33.00
2022-11-27T18:51:33.171Z,24.38
2022-11-27T18:54:00.251Z,22.23
2022-11-27T18:56:30.436Z,24.95
2022-11-27T18:59:02.888Z,28.60
2022-11-27T19:01:36.777Z,15.27
2022-11-27T19:04:07.255Z,15.10
2022-11-27T19:06:35.942Z,20.50
2022-11-27T19:09:03.619Z,12.52
2022-11-27T19:11:30.942Z,15.10
2022-11-27T19:13:58.687Z,11.18
2022-11-27T19:16:29.307Z,9.63
2022-11-27T19:18:57.821Z,10.43
2022-11-27T19:21:28.135Z,7.03
2022-11-27T19:23:56.650Z,5.95
2022-11-27T19:26:26.665Z,8.45
2022-11-27T19:28:56.475Z,4.38
2022-11-27T19:31:27.597Z,7.72
2022-11-27T19:33:56.560Z,8.65
2022-11-27T19:36:23.967Z,4.97
2022-11-27T19:39:02.944Z,7.88
2022-11-27T19:41:30.426Z,8.32
2022-11-27T19:43:57.583Z,7.10
2022-11-27T19:46:27.233Z,6.88
2022-11-27T19:48:59.667Z,6.43
2022-11-27T19:51:28.163Z,11.50
2022-11-27T19:53:55.303Z,12.73
2022-11-27T19:56:22.582Z,16.58
2022-11-27T19:58:49.672Z,19.10
2022-11-27T20:01:18.791Z,12.38
2022-11-27T20:03:47.340Z,11.88
2022-11-27T20:06:19.608Z,15.05
2022-11-27T20:08:49.024Z,13.20
2022-11-27T20:11:19.238Z,19.02
2022-11-27T20:13:46.316Z,12.40
2022-11-27T20:16:16.658Z,14.93
2022-11-27T20:18:44.704Z,19.38
2022-11-27T20:21:18.030Z,21.88
2022-11-27T20:23:46.580Z,19.30
2022-11-27T20:26:17.457Z,21.38
2022-11-27T20:28:45.603Z,25.35
2022-11-27T20:31:16.469Z,18.38
2022-11-27T20:33:43.603Z,19.05
2022-11-27T20:36:12.445Z,17.20
2022-11-27T20:38:39.808Z,23.20
2022-11-27T20:41:12.373Z,15.88
2022-11-27T20:43:39.916Z,14.65
2022-11-27T20:46:07.703Z,19.02
2022-11-27T20:48:35.409Z,11.07
2022-11-27T20:51:13.736Z,15.30
2022-11-27T20:53:41.845Z,13.10
2022-11-27T20:56:10.888Z,8.18
2022-11-27T20:58:41.537Z,5.88
2022-11-27T21:01:20.525Z,7.77
2022-11-27T21:03:50.040Z,13.33
2022-11-27T21:06:20.905Z,9.38
2022-11-27T21:08:47.965Z,8.32
2022-11-27T21:11:16.533Z,16.73
2022-11-27T21:13:44.030Z,18.75
2022-11-27T21:16:12.701Z,14.93
2022-11-27T21:18:40.520Z,14.02
2022-11-27T21:21:13.015Z,35.20
2022-11-27T21:23:41.535Z,25.93
2022-11-27T21:26:10.983Z,18.48
2022-11-27T21:28:38.929Z,23.03
2022-11-27T21:31:06.783Z,15.23
2022-11-27T21:33:34.138Z,13.77
2022-11-27T21:36:01.440Z,14.43
2022-11-27T21:38:28.502Z,22.75
2022-11-27T21:40:55.654Z,16.25
2022-11-27T21:43:22.838Z,16.70
2022-11-27T21:45:51.017Z,20.95
2022-11-27T21:48:18.319Z,13.60
2022-11-27T21:50:45.486Z,18.27
2022-11-27T21:53:12.582Z,18.25
2022-11-27T21:55:41.331Z,23.83
2022-11-27T21:58:08.931Z,29.87
2022-11-27T22:00:36.636Z,23.23
2022-11-27T22:03:03.744Z,24.60
2022-11-27T22:05:31.058Z,31.25
2022-11-27T22:07:58.174Z,20.25
2022-11-27T22:10:25.435Z,20.90
2022-11-27T22:12:52.483Z,20.33
2022-11-27T22:15:19.555Z,25.73
2022-11-27T22:17:46.667Z,27.23
2022-11-27T22:20:14.348Z,22.63
2022-11-27T22:22:41.678Z,13.75
2022-11-27T22:25:09.198Z,13.98
2022-11-27T22:27:36.346Z,13.48
2022-11-27T22:30:03.922Z,9.98
2022-11-27T22:32:31.004Z,12.63
2022-11-27T22:34:58.056Z,9.70
2022-11-27T22:37:25.081Z,7.77
2022-11-27T22:39:52.115Z,9.03
2022-11-27T22:42:19.145Z,7.37
2022-11-27T22:44:46.184Z,8.57
2022-11-27T22:47:13.256Z,7.27
2022-11-27T22:49:40.452Z,7.57
2022-11-27T22:52:07.520Z,14.73
2022-11-27T22:54:34.573Z,23.63
2022-11-27T22:57:01.602Z,95.55
2022-11-27T22:59:33.639Z,54.25
2022-11-27T23:02:02.270Z,35.72
2022-11-27T23:04:29.373Z,44.47
2022-11-27T23:06:56.492Z,57.75
2022-11-27T23:09:23.571Z,46.78
2022-11-27T23:11:50.769Z,34.37
2022-11-27T23:14:17.839Z,30.53
2022-11-27T23:16:45.107Z,30.98
2022-11-27T23:19:12.374Z,36.03
2022-11-27T23:21:40.145Z,29.23
2022-11-27T23:24:09.977Z,26.50
2022-11-27T23:26:37.098Z,28.57
2022-11-27T23:29:04.429Z,28.30
2022-11-27T23:31:34.942Z,30.33
2022-11-27T23:34:07.240Z,18.37
2022-11-27T23:36:35.335Z,23.23
2022-11-27T23:39:07.640Z,18.70
2022-11-27T23:41:34.918Z,16.13
2022-11-27T23:44:02.145Z,15.25
2022-11-27T23:46:29.915Z,21.60
2022-11-27T23:48:59.566Z,25.80
2022-11-27T23:51:29.717Z,23.00
2022-11-27T23:53:56.989Z,15.43
2022-11-27T23:56:26.798Z,19.52
2022-11-27T23:58:55.427Z,30.23
